X  Lukk Metar værinformasjon om luftfart     EDDK Cologne Bonn Airport
Temperatur
24°C Temperatur
13°C Duggpunkt
50% Luftfuktighet



Vind
8 MPT
13 KM/T
4 M/S
7 KNP



310°
NV
Nåværende forhold

Klart Klart
Trykk 1018.96 (hPa) - 30.09 (inHg)
Sikt 6 (mil) - 9.7 (km)
Flyplass
Flyplass-kode EDDK

Plassering: Cologne Bonn Airport
Avstand: 56 (mi)

Metar:
EDDK 231650Z AUTO 31007KT 280V340 CAVOK 24/13 Q1019 NOSIG

Tid: 2024-06-23 18:50 CEST